createdAt,value
2023-12-09T00:00:27.185Z,100824.63
2023-12-09T00:01:33.778Z,100818.78
2023-12-09T00:02:42.458Z,100822.22
2023-12-09T00:03:50.743Z,100828.25
2023-12-09T00:04:56.924Z,100823.09
2023-12-09T00:06:03.584Z,100822.22
2023-12-09T00:07:09.810Z,100828.22
2023-12-09T00:08:16.444Z,100827.41
2023-12-09T00:09:20.486Z,100829.06
2023-12-09T00:10:29.268Z,100823.81
2023-12-09T00:11:36.129Z,100829.09
2023-12-09T00:12:43.860Z,100836.06
2023-12-09T00:13:47.715Z,100831.03
2023-12-09T00:14:51.604Z,100836.16
2023-12-09T00:16:04.001Z,100824.94
2023-12-09T00:17:08.953Z,100827.53
2023-12-09T00:18:19.159Z,100823.22
2023-12-09T00:19:25.905Z,100824.81
2023-12-09T00:20:32.789Z,100823.06
2023-12-09T00:21:38.641Z,100823.94
2023-12-09T00:22:45.932Z,100823.06
2023-12-09T00:23:54.614Z,100825.53
2023-12-09T00:25:01.190Z,100826.22
2023-12-09T00:26:05.779Z,100827.78
2023-12-09T00:27:16.213Z,100819.91
2023-12-09T00:28:20.153Z,100818.97
2023-12-09T00:29:38.829Z,100820.66
2023-12-09T00:30:43.912Z,100815.53
2023-12-09T00:31:52.133Z,100826.72
2023-12-09T00:32:59.444Z,100825.84
2023-12-09T00:34:13.688Z,100832.81
2023-12-09T00:35:18.993Z,100833.84
2023-12-09T00:36:25.669Z,100826.16
2023-12-09T00:37:30.871Z,100827.09
2023-12-09T00:38:41.278Z,100827.97
2023-12-09T00:39:56.067Z,100823.75
2023-12-09T00:41:07.138Z,100828.91
2023-12-09T00:42:12.651Z,100829.81
2023-12-09T00:43:24.073Z,100833.22
2023-12-09T00:44:31.631Z,100832.41
2023-12-09T00:45:43.353Z,100835.88
2023-12-09T00:46:50.471Z,100832.38
2023-12-09T00:47:57.423Z,100830.59
2023-12-09T00:49:04.000Z,100833.19
2023-12-09T00:50:22.462Z,100844.38
2023-12-09T00:51:28.488Z,100841.00
2023-12-09T00:52:39.065Z,100834.97
2023-12-09T00:53:43.745Z,100845.22
2023-12-09T00:54:50.251Z,100838.34
2023-12-09T00:55:54.207Z,100839.19
2023-12-09T00:57:04.048Z,100840.06
2023-12-09T00:58:10.573Z,100833.28
2023-12-09T00:59:20.277Z,100839.34
2023-12-09T01:00:26.988Z,100838.56
2023-12-09T01:01:35.151Z,100835.09
2023-12-09T01:02:40.288Z,100844.50
2023-12-09T01:03:56.246Z,100840.19
2023-12-09T01:05:02.576Z,100838.47
2023-12-09T01:06:15.785Z,100838.47
2023-12-09T01:07:22.406Z,100834.97
2023-12-09T01:08:32.757Z,100839.25
2023-12-09T01:09:39.552Z,100846.09
2023-12-09T01:10:46.440Z,100846.03
2023-12-09T01:11:57.349Z,100845.19
2023-12-09T01:13:04.021Z,100852.06
2023-12-09T01:14:10.515Z,100853.75
2023-12-09T01:15:27.403Z,100849.47
2023-12-09T01:16:34.227Z,100846.88
2023-12-09T01:17:40.104Z,100856.28
2023-12-09T01:18:44.042Z,100853.75
2023-12-09T01:19:50.626Z,100853.84
2023-12-09T01:20:56.422Z,100852.19
2023-12-09T01:22:05.660Z,100860.75
2023-12-09T01:23:09.595Z,100852.16
2023-12-09T01:24:16.302Z,100847.88
2023-12-09T01:25:20.325Z,100853.16
2023-12-09T01:26:26.765Z,100856.53
2023-12-09T01:27:33.731Z,100849.63
2023-12-09T01:28:40.267Z,100847.00
2023-12-09T01:29:44.744Z,100847.81
2023-12-09T01:30:54.005Z,100852.94
2023-12-09T01:32:00.256Z,100851.19
2023-12-09T01:33:07.024Z,100855.53
2023-12-09T01:34:11.118Z,100855.50
2023-12-09T01:35:21.323Z,100854.53
2023-12-09T01:36:25.415Z,100861.44
2023-12-09T01:37:34.769Z,100857.13
2023-12-09T01:38:38.662Z,100854.50
2023-12-09T01:39:46.536Z,100856.22
2023-12-09T01:40:54.883Z,100853.63
2023-12-09T01:42:04.378Z,100855.31
2023-12-09T01:43:10.612Z,100849.25
2023-12-09T01:44:17.223Z,100854.47
2023-12-09T01:45:21.815Z,100844.13
2023-12-09T01:46:31.185Z,100846.59
2023-12-09T01:47:39.711Z,100842.28
2023-12-09T01:48:46.596Z,100838.00
2023-12-09T01:49:51.279Z,100840.56
2023-12-09T01:50:57.913Z,100840.56
2023-12-09T01:52:03.709Z,100849.97
2023-12-09T01:53:15.431Z,100846.56
2023-12-09T01:54:19.495Z,100845.69
2023-12-09T01:55:28.234Z,100850.81
2023-12-09T01:56:32.480Z,100850.78
2023-12-09T01:57:42.027Z,100848.31
2023-12-09T01:58:45.959Z,100836.25
2023-12-09T01:59:52.578Z,100841.47
2023-12-09T02:00:57.153Z,100844.03
2023-12-09T02:02:05.289Z,100846.56
2023-12-09T02:03:09.353Z,100842.34
2023-12-09T02:04:17.541Z,100843.16
2023-12-09T02:05:24.629Z,100841.34
2023-12-09T02:06:34.506Z,100834.44
2023-12-09T02:07:38.382Z,100839.59
2023-12-09T02:08:47.546Z,100836.97
2023-12-09T02:09:51.826Z,100836.97
2023-12-09T02:11:12.848Z,100833.53
2023-12-09T02:12:33.151Z,100836.97
2023-12-09T02:13:53.473Z,100832.69
2023-12-09T02:15:06.701Z,100834.59
2023-12-09T02:16:25.374Z,100835.63
2023-12-09T02:17:40.016Z,100837.41
2023-12-09T02:18:49.355Z,100836.44
2023-12-09T02:19:54.819Z,100837.25
2023-12-09T02:21:01.181Z,100835.50
2023-12-09T02:22:09.784Z,100833.75
2023-12-09T02:23:18.938Z,100841.50
2023-12-09T02:24:25.942Z,100832.00
2023-12-09T02:25:34.844Z,100839.72
2023-12-09T02:26:41.292Z,100834.59
2023-12-09T02:27:58.388Z,100837.13
2023-12-09T02:29:09.438Z,100843.13
2023-12-09T02:30:30.625Z,100845.72
2023-12-09T02:31:38.626Z,100854.31
2023-12-09T02:32:47.840Z,100849.19
2023-12-09T02:33:52.680Z,100846.59
2023-12-09T02:35:01.291Z,100844.84
2023-12-09T02:36:11.759Z,100844.81
2023-12-09T02:37:23.686Z,100847.34
2023-12-09T02:38:38.892Z,100841.31
2023-12-09T02:39:50.094Z,100848.22
2023-12-09T02:40:54.404Z,100847.44
2023-12-09T02:42:03.952Z,100844.88
2023-12-09T02:43:08.403Z,100847.44
2023-12-09T02:44:18.035Z,100843.09
2023-12-09T02:45:22.266Z,100841.41
2023-12-09T02:46:31.419Z,100831.94
2023-12-09T02:47:38.086Z,100834.50
2023-12-09T02:48:44.589Z,100834.53
2023-12-09T02:49:53.530Z,100829.31
2023-12-09T02:50:57.169Z,100831.88
2023-12-09T02:52:02.873Z,100825.84
2023-12-09T02:53:06.498Z,100832.75
2023-12-09T02:54:15.632Z,100837.97
2023-12-09T02:55:22.829Z,100839.66
2023-12-09T02:56:29.307Z,100827.59
2023-12-09T02:57:33.250Z,100830.22
2023-12-09T02:58:39.773Z,100825.91
2023-12-09T02:59:43.733Z,100834.47
2023-12-09T03:00:52.826Z,100831.00
2023-12-09T03:01:59.086Z,100833.56
2023-12-09T03:03:05.684Z,100829.22
2023-12-09T03:04:09.812Z,100826.72
2023-12-09T03:05:18.781Z,100823.25
2023-12-09T03:06:22.722Z,100818.09
2023-12-09T03:07:31.559Z,100824.09
2023-12-09T03:08:38.641Z,100821.41
2023-12-09T03:09:50.745Z,100823.09
2023-12-09T03:10:57.661Z,100821.31
2023-12-09T03:12:04.640Z,100824.75
2023-12-09T03:13:08.539Z,100821.31
2023-12-09T03:14:17.532Z,100832.56
2023-12-09T03:15:24.133Z,100824.94
2023-12-09T03:16:32.557Z,100828.41
2023-12-09T03:17:39.667Z,100831.06
2023-12-09T03:18:46.274Z,100827.72
2023-12-09T03:19:54.796Z,100824.22
2023-12-09T03:21:01.425Z,100822.53
2023-12-09T03:22:05.692Z,100827.63
2023-12-09T03:23:12.120Z,100831.88
2023-12-09T03:24:20.856Z,100829.31
2023-12-09T03:25:26.654Z,100836.97
2023-12-09T03:26:33.162Z,100833.47
2023-12-09T03:27:39.646Z,100829.09
2023-12-09T03:28:48.441Z,100836.84
2023-12-09T03:29:54.483Z,100833.47
2023-12-09T03:31:06.909Z,100844.66
2023-12-09T03:32:10.820Z,100846.31
2023-12-09T03:33:14.789Z,100841.19
2023-12-09T03:34:21.385Z,100845.50
2023-12-09T03:35:25.344Z,100842.03
2023-12-09T03:36:30.989Z,100842.91
2023-12-09T03:37:34.907Z,100845.53
2023-12-09T03:38:41.455Z,100835.28
2023-12-09T03:39:45.311Z,100838.72
2023-12-09T03:40:56.933Z,100840.38
2023-12-09T03:42:00.844Z,100833.47
2023-12-09T03:43:12.057Z,100842.91
2023-12-09T03:44:15.988Z,100837.69
2023-12-09T03:45:19.924Z,100835.19
2023-12-09T03:46:28.596Z,100833.41
2023-12-09T03:47:32.536Z,100826.63
2023-12-09T03:48:39.281Z,100825.75
2023-12-09T03:49:45.807Z,100827.50
2023-12-09T03:50:51.899Z,100830.88
2023-12-09T03:52:00.104Z,100824.03
2023-12-09T03:53:04.016Z,100827.50
2023-12-09T03:54:10.598Z,100824.03
2023-12-09T03:55:17.114Z,100830.88
2023-12-09T03:56:29.265Z,100832.56
2023-12-09T03:57:38.519Z,100836.03
2023-12-09T03:58:45.081Z,100829.13
2023-12-09T03:59:51.218Z,100838.56
2023-12-09T04:00:57.775Z,100834.28
2023-12-09T04:02:01.693Z,100836.88
2023-12-09T04:03:17.247Z,100841.13
2023-12-09T04:04:21.165Z,100838.56
2023-12-09T04:05:27.820Z,100836.97
2023-12-09T04:06:33.756Z,100835.25
2023-12-09T04:07:42.430Z,100837.78
2023-12-09T04:08:48.340Z,100835.28
2023-12-09T04:09:57.845Z,100843.91
2023-12-09T04:11:06.361Z,100843.94
2023-12-09T04:12:17.719Z,100846.44
2023-12-09T04:13:23.440Z,100845.50
2023-12-09T04:14:30.308Z,100848.19
2023-12-09T04:15:34.329Z,100846.53
2023-12-09T04:16:40.916Z,100847.31
2023-12-09T04:17:48.729Z,100848.31
2023-12-09T04:18:57.904Z,100849.94
2023-12-09T04:20:05.824Z,100853.41
2023-12-09T04:21:12.582Z,100849.97
2023-12-09T04:22:16.561Z,100842.22
2023-12-09T04:23:22.983Z,100846.47
2023-12-09T04:24:26.910Z,100851.69
2023-12-09T04:25:35.380Z,100850.78
2023-12-09T04:26:39.905Z,100847.31
2023-12-09T04:27:53.628Z,100840.41
2023-12-09T04:28:57.070Z,100851.56
2023-12-09T04:30:04.703Z,100851.56
2023-12-09T04:31:10.631Z,100849.06
2023-12-09T04:32:17.107Z,100843.13
2023-12-09T04:33:20.510Z,100844.78
2023-12-09T04:34:27.048Z,100836.09
2023-12-09T04:35:30.851Z,100832.59
2023-12-09T04:36:40.186Z,100832.56
2023-12-09T04:37:46.749Z,100840.44
2023-12-09T04:38:54.421Z,100837.91
2023-12-09T04:40:00.766Z,100842.34
2023-12-09T04:41:08.027Z,100844.81
2023-12-09T04:42:14.210Z,100842.16
2023-12-09T04:43:23.340Z,100844.81
2023-12-09T04:44:29.452Z,100839.59
2023-12-09T04:45:38.498Z,100845.56
2023-12-09T04:46:44.853Z,100847.41
2023-12-09T04:47:54.849Z,100837.06
2023-12-09T04:48:59.356Z,100840.44
2023-12-09T04:50:10.539Z,100838.69
2023-12-09T04:51:18.136Z,100836.09
2023-12-09T04:52:22.025Z,100841.19
2023-12-09T04:53:30.733Z,100844.66
2023-12-09T04:54:34.511Z,100847.22
2023-12-09T04:55:41.679Z,100834.31
2023-12-09T04:56:45.574Z,100846.41
2023-12-09T04:57:54.304Z,100832.72
2023-12-09T04:59:02.182Z,100841.34
2023-12-09T05:00:12.503Z,100833.53
2023-12-09T05:01:18.744Z,100837.91
2023-12-09T05:02:27.598Z,100834.44
2023-12-09T05:03:34.894Z,100832.69
2023-12-09T05:04:41.223Z,100837.81
2023-12-09T05:05:47.752Z,100827.50
2023-12-09T05:07:00.458Z,100835.22
2023-12-09T05:08:07.895Z,100831.72
2023-12-09T05:09:12.923Z,100835.94
2023-12-09T05:10:20.823Z,100824.75
2023-12-09T05:11:24.736Z,100837.66
2023-12-09T05:12:31.571Z,100832.56
2023-12-09T05:13:36.104Z,100838.53
2023-12-09T05:14:45.158Z,100829.94
2023-12-09T05:15:51.651Z,100831.66
2023-12-09T05:16:58.297Z,100822.97
2023-12-09T05:18:04.040Z,100825.56
2023-12-09T05:19:07.826Z,100827.31
2023-12-09T05:20:15.588Z,100829.06
2023-12-09T05:21:18.893Z,100824.72
2023-12-09T05:22:28.164Z,100827.31
2023-12-09T05:23:34.760Z,100827.34
2023-12-09T05:24:41.320Z,100826.44
2023-12-09T05:25:45.558Z,100816.06
2023-12-09T05:26:53.406Z,100822.88
2023-12-09T05:27:57.300Z,100820.22
2023-12-09T05:29:04.751Z,100820.22
2023-12-09T05:30:14.997Z,100819.34
2023-12-09T05:31:23.952Z,100810.78
2023-12-09T05:32:29.986Z,100809.00
2023-12-09T05:33:36.477Z,100815.00
2023-12-09T05:34:43.193Z,100807.19
2023-12-09T05:35:46.869Z,100809.78
2023-12-09T05:36:53.371Z,100809.72
2023-12-09T05:37:57.243Z,100801.06
2023-12-09T05:39:03.811Z,100804.47
2023-12-09T05:40:09.751Z,100813.88
2023-12-09T05:41:19.649Z,100808.69
2023-12-09T05:42:23.558Z,100804.44
2023-12-09T05:43:33.204Z,100800.94
2023-12-09T05:44:39.095Z,100800.03
2023-12-09T05:45:50.358Z,100795.66
2023-12-09T05:46:54.410Z,100799.94
2023-12-09T05:48:01.493Z,100794.69
2023-12-09T05:49:05.966Z,100798.09
2023-12-09T05:50:13.853Z,100796.56
2023-12-09T05:51:18.115Z,100793.13
2023-12-09T05:52:25.886Z,100802.66
2023-12-09T05:53:33.952Z,100789.72
2023-12-09T05:54:47.771Z,100801.69
2023-12-09T05:55:54.816Z,100799.00
2023-12-09T05:57:11.791Z,100794.69
2023-12-09T05:58:15.752Z,100792.03
2023-12-09T05:59:22.284Z,100782.50
2023-12-09T06:00:26.389Z,100789.44
2023-12-09T06:01:35.911Z,100794.63
2023-12-09T06:02:42.434Z,100791.16
2023-12-09T06:03:46.329Z,100798.81
2023-12-09T06:04:52.900Z,100793.88
2023-12-09T06:05:59.753Z,100797.13
2023-12-09T06:07:06.414Z,100798.19
2023-12-09T06:08:10.394Z,100798.69
2023-12-09T06:09:20.910Z,100802.81
2023-12-09T06:10:24.826Z,100795.88
2023-12-09T06:11:33.544Z,100794.28
2023-12-09T06:12:37.701Z,100793.72
2023-12-09T06:13:44.211Z,100797.28
2023-12-09T06:14:51.162Z,100790.63
2023-12-09T06:16:00.620Z,100785.66
2023-12-09T06:17:10.080Z,100784.13
2023-12-09T06:18:18.053Z,100792.00
2023-12-09T06:19:22.054Z,100780.31
2023-12-09T06:20:32.572Z,100784.00
2023-12-09T06:21:36.500Z,100783.13
2023-12-09T06:22:45.412Z,100785.72
2023-12-09T06:23:49.443Z,100785.22
2023-12-09T06:24:55.920Z,100782.59
2023-12-09T06:25:59.739Z,100792.13
2023-12-09T06:27:07.158Z,100790.50
2023-12-09T06:28:13.301Z,100782.03
2023-12-09T06:29:42.401Z,100781.34
2023-12-09T06:30:48.801Z,100782.19
2023-12-09T06:31:57.031Z,100788.25
2023-12-09T06:33:03.697Z,100783.16
2023-12-09T06:34:10.432Z,100781.44
2023-12-09T06:35:17.364Z,100783.94
2023-12-09T06:36:26.035Z,100788.25
2023-12-09T06:37:29.934Z,100783.84
2023-12-09T06:38:42.683Z,100793.28
2023-12-09T06:39:46.642Z,100794.97
2023-12-09T06:40:52.771Z,100785.56
2023-12-09T06:41:56.729Z,100795.13
2023-12-09T06:43:05.492Z,100786.50
2023-12-09T06:44:12.490Z,100783.84
2023-12-09T06:45:19.119Z,100788.19
2023-12-09T06:46:23.093Z,100788.97
2023-12-09T06:47:29.630Z,100783.06
2023-12-09T06:48:38.852Z,100784.72
2023-12-09T06:49:47.962Z,100792.59
2023-12-09T06:50:54.218Z,100788.34
2023-12-09T06:52:03.180Z,100790.00
2023-12-09T06:53:14.576Z,100797.75
2023-12-09T06:54:25.073Z,100799.53
2023-12-09T06:55:29.010Z,100799.47
2023-12-09T06:56:35.483Z,100802.88
2023-12-09T06:57:39.433Z,100807.13
2023-12-09T06:58:45.890Z,100801.09
2023-12-09T06:59:49.757Z,100802.81
2023-12-09T07:00:56.336Z,100807.94
2023-12-09T07:02:00.280Z,100806.28
2023-12-09T07:03:09.660Z,100814.97
2023-12-09T07:04:16.374Z,100811.66
2023-12-09T07:05:25.114Z,100813.47
2023-12-09T07:06:30.780Z,100816.94
2023-12-09T07:07:42.021Z,100815.19
2023-12-09T07:08:46.049Z,100822.06
2023-12-09T07:09:53.710Z,100818.53
2023-12-09T07:11:00.767Z,100817.72
2023-12-09T07:12:10.695Z,100816.75
2023-12-09T07:13:16.690Z,100816.94
2023-12-09T07:14:23.216Z,100817.81
2023-12-09T07:15:29.399Z,100820.41
2023-12-09T07:16:39.476Z,100823.88
2023-12-09T07:17:43.519Z,100819.56
2023-12-09T07:18:52.896Z,100812.63
2023-12-09T07:20:02.684Z,100805.81
2023-12-09T07:21:10.017Z,100810.09
2023-12-09T07:22:13.959Z,100817.00
2023-12-09T07:23:20.896Z,100801.44
2023-12-09T07:24:25.639Z,100800.66
2023-12-09T07:25:33.215Z,100797.28
2023-12-09T07:26:37.160Z,100801.56
2023-12-09T07:27:46.243Z,100804.94
2023-12-09T07:28:50.465Z,100798.06
2023-12-09T07:29:56.157Z,100799.75
2023-12-09T07:31:04.943Z,100800.63
2023-12-09T07:32:11.649Z,100802.34
2023-12-09T07:33:15.655Z,100798.88
2023-12-09T07:34:22.502Z,100810.94
2023-12-09T07:35:32.060Z,100805.88
2023-12-09T07:36:38.639Z,100811.03
2023-12-09T07:37:43.341Z,100807.59
2023-12-09T07:38:51.019Z,100805.00
2023-12-09T07:39:55.389Z,100796.38
2023-12-09T07:41:02.735Z,100806.72
2023-12-09T07:42:06.686Z,100806.84
2023-12-09T07:43:12.553Z,100796.50
2023-12-09T07:44:16.469Z,100799.09
2023-12-09T07:45:26.316Z,100790.50
2023-12-09T07:46:33.812Z,100793.13
2023-12-09T07:47:40.349Z,100799.94
2023-12-09T07:48:46.785Z,100801.56
2023-12-09T07:49:54.986Z,100804.09
2023-12-09T07:51:02.315Z,100804.06
2023-12-09T07:52:10.263Z,100804.09
2023-12-09T07:53:16.405Z,100798.03
2023-12-09T07:54:25.142Z,100803.25
2023-12-09T07:55:31.676Z,100809.22
2023-12-09T07:56:38.196Z,100801.47
2023-12-09T07:57:45.167Z,100798.03
2023-12-09T07:58:56.017Z,100795.41
2023-12-09T07:59:59.859Z,100801.47
2023-12-09T08:01:11.324Z,100803.34
2023-12-09T08:02:17.560Z,100804.25
2023-12-09T08:03:24.057Z,100809.34
2023-12-09T08:04:27.981Z,100808.53
2023-12-09T08:05:36.094Z,100799.13
2023-12-09T08:06:43.328Z,100806.84
2023-12-09T08:07:49.849Z,100800.72
2023-12-09T08:08:53.477Z,100801.50
2023-12-09T08:09:59.798Z,100798.88
2023-12-09T08:11:06.993Z,100799.69
2023-12-09T08:12:13.560Z,100801.38
2023-12-09T08:13:21.481Z,100800.41
2023-12-09T08:14:32.056Z,100797.75
2023-12-09T08:15:38.723Z,100793.59
2023-12-09T08:16:45.204Z,100796.94
2023-12-09T08:17:52.187Z,100796.97
2023-12-09T08:18:58.750Z,100796.94
2023-12-09T08:20:10.318Z,100794.34
2023-12-09T08:21:17.382Z,100801.19
2023-12-09T08:22:24.012Z,100797.59
2023-12-09T08:23:30.989Z,100802.75
2023-12-09T08:24:37.927Z,100805.34
2023-12-09T08:25:46.849Z,100800.94
2023-12-09T08:26:56.818Z,100806.22
2023-12-09T08:28:07.136Z,100810.56
2023-12-09T08:29:13.088Z,100804.47
2023-12-09T08:30:19.545Z,100804.41
2023-12-09T08:31:26.171Z,100809.59
2023-12-09T08:32:30.466Z,100810.44
2023-12-09T08:33:40.114Z,100802.66
2023-12-09T08:34:51.283Z,100806.13
2023-12-09T08:36:03.274Z,100807.84
2023-12-09T08:37:07.187Z,100804.31
2023-12-09T08:38:16.340Z,100805.13
2023-12-09T08:39:20.320Z,100805.00
2023-12-09T08:40:26.870Z,100798.94
2023-12-09T08:41:31.022Z,100801.50
2023-12-09T08:42:40.290Z,100800.63
2023-12-09T08:43:44.404Z,100805.75
2023-12-09T08:44:53.449Z,100800.56
2023-12-09T08:45:57.363Z,100795.44
2023-12-09T08:47:03.898Z,100801.50
2023-12-09T08:48:10.274Z,100799.78
2023-12-09T08:49:16.910Z,100806.63
2023-12-09T08:50:25.533Z,100820.41
2023-12-09T08:51:34.796Z,100820.31
2023-12-09T08:52:39.252Z,100816.78
2023-12-09T08:53:48.566Z,100814.97
2023-12-09T08:54:52.462Z,100808.09
2023-12-09T08:55:58.945Z,100800.38
2023-12-09T08:57:02.855Z,100803.78
2023-12-09T08:58:09.325Z,100806.38
2023-12-09T08:59:13.325Z,100795.28
2023-12-09T09:00:27.417Z,100807.31
2023-12-09T09:01:31.457Z,100796.84
2023-12-09T09:02:42.023Z,100797.69
2023-12-09T09:03:45.978Z,100783.91
2023-12-09T09:04:52.518Z,100790.72
2023-12-09T09:05:56.469Z,100787.28
2023-12-09T09:07:05.130Z,100779.41
2023-12-09T09:08:11.980Z,100782.00
2023-12-09T09:09:24.180Z,100779.34
2023-12-09T09:10:28.327Z,100788.00
2023-12-09T09:11:34.769Z,100780.22
2023-12-09T09:12:41.902Z,100781.09
2023-12-09T09:13:51.049Z,100777.59
2023-12-09T09:14:57.795Z,100772.34
2023-12-09T09:16:07.221Z,100771.59
2023-12-09T09:17:10.691Z,100770.84
2023-12-09T09:18:17.563Z,100773.38
2023-12-09T09:19:22.320Z,100773.38
2023-12-09T09:20:31.003Z,100770.94
2023-12-09T09:21:37.944Z,100773.41
2023-12-09T09:22:47.093Z,100780.22
2023-12-09T09:23:51.515Z,100771.56
2023-12-09T09:25:00.725Z,100769.88
2023-12-09T09:26:07.545Z,100766.38
2023-12-09T09:27:14.025Z,100768.06
2023-12-09T09:28:23.229Z,100767.19
2023-12-09T09:29:32.045Z,100770.75
2023-12-09T09:30:36.163Z,100764.69
2023-12-09T09:31:44.760Z,100764.63
2023-12-09T09:32:51.469Z,100764.56
2023-12-09T09:33:58.339Z,100767.19
2023-12-09T09:35:02.491Z,100763.69
2023-12-09T09:36:11.027Z,100762.88
2023-12-09T09:37:18.506Z,100772.34
2023-12-09T09:38:27.769Z,100766.25
2023-12-09T09:39:34.715Z,100766.22
2023-12-09T09:40:46.357Z,100761.06
2023-12-09T09:42:04.733Z,100761.06
2023-12-09T09:43:23.925Z,100775.13
2023-12-09T09:44:30.371Z,100768.28
2023-12-09T09:45:37.591Z,100771.69
2023-12-09T09:46:46.264Z,100772.50
2023-12-09T09:47:54.294Z,100766.13
2023-12-09T09:49:03.753Z,100767.75
2023-12-09T09:50:14.283Z,100764.34
2023-12-09T09:51:29.663Z,100763.69
2023-12-09T09:52:40.170Z,100764.75
2023-12-09T09:53:57.757Z,100762.75
2023-12-09T09:55:08.706Z,100757.72
2023-12-09T09:56:19.893Z,100754.38
2023-12-09T09:57:31.960Z,100752.09
2023-12-09T09:58:38.838Z,100748.72
2023-12-09T09:59:46.140Z,100746.22
2023-12-09T10:00:58.583Z,100755.97
2023-12-09T10:02:08.775Z,100751.03
2023-12-09T10:03:15.823Z,100747.59
2023-12-09T10:04:24.953Z,100749.38
2023-12-09T10:05:31.499Z,100746.00
2023-12-09T10:06:39.826Z,100743.47
2023-12-09T10:07:46.432Z,100739.28
2023-12-09T10:08:52.939Z,100740.06
2023-12-09T10:10:08.072Z,100741.75
2023-12-09T10:11:11.915Z,100738.47
2023-12-09T10:12:21.082Z,100731.63
2023-12-09T10:13:27.365Z,100734.16
2023-12-09T10:14:31.193Z,100736.75
2023-12-09T10:15:39.155Z,100733.28
2023-12-09T10:16:43.804Z,100731.50
2023-12-09T10:17:50.446Z,100722.84
2023-12-09T10:18:58.085Z,100723.91
2023-12-09T10:20:07.192Z,100727.31
2023-12-09T10:21:11.192Z,100711.00
2023-12-09T10:22:20.593Z,100723.97
2023-12-09T10:23:32.926Z,100715.31
2023-12-09T10:24:49.884Z,100716.97
2023-12-09T10:25:54.588Z,100721.41
2023-12-09T10:27:00.164Z,100722.25
2023-12-09T10:28:08.941Z,100720.41
2023-12-09T10:29:18.024Z,100713.44
2023-12-09T10:30:28.346Z,100711.66
2023-12-09T10:31:37.761Z,100710.72
2023-12-09T10:32:42.368Z,100713.31
2023-12-09T10:33:49.072Z,100705.47
2023-12-09T10:34:56.392Z,100703.94
2023-12-09T10:36:06.010Z,100700.47
2023-12-09T10:37:10.517Z,100703.00
2023-12-09T10:38:20.436Z,100704.69
2023-12-09T10:39:26.992Z,100705.47
2023-12-09T10:40:39.860Z,100696.09
2023-12-09T10:41:47.483Z,100697.00
2023-12-09T10:42:54.365Z,100691.81
2023-12-09T10:44:03.849Z,100689.16
2023-12-09T10:45:13.583Z,100684.78
2023-12-09T10:46:17.430Z,100679.72
2023-12-09T10:47:23.960Z,100678.13
2023-12-09T10:48:30.441Z,100679.97
2023-12-09T10:49:40.609Z,100675.47
2023-12-09T10:50:46.254Z,100675.38
2023-12-09T10:51:52.783Z,100674.53
2023-12-09T10:52:59.102Z,100667.59
2023-12-09T10:54:08.235Z,100667.59
2023-12-09T10:55:12.264Z,100671.78
2023-12-09T10:56:22.921Z,100669.13
2023-12-09T10:57:27.530Z,100668.22
2023-12-09T10:58:38.576Z,100662.22
2023-12-09T10:59:45.634Z,100654.41
2023-12-09T11:00:54.608Z,100652.66
2023-12-09T11:02:02.847Z,100657.84
2023-12-09T11:03:12.885Z,100646.50
2023-12-09T11:04:17.262Z,100655.91
2023-12-09T11:05:27.508Z,100645.53
2023-12-09T11:06:36.064Z,100650.66
2023-12-09T11:07:45.597Z,100646.22
2023-12-09T11:08:53.203Z,100649.63
2023-12-09T11:10:02.313Z,100643.59
2023-12-09T11:11:09.487Z,100642.16
2023-12-09T11:12:31.042Z,100639.34
2023-12-09T11:13:38.894Z,100639.22
2023-12-09T11:14:50.193Z,100644.34
2023-12-09T11:16:12.142Z,100639.47
2023-12-09T11:17:37.695Z,100645.13
2023-12-09T11:18:54.091Z,100636.19
2023-12-09T11:20:01.924Z,100624.66
2023-12-09T11:21:09.705Z,100620.03
2023-12-09T11:22:17.570Z,100616.66
2023-12-09T11:23:21.947Z,100614.97
2023-12-09T11:24:34.580Z,100609.97
2023-12-09T11:25:41.797Z,100611.91
2023-12-09T11:26:49.604Z,100615.66
2023-12-09T11:27:54.936Z,100611.69
2023-12-09T11:29:00.390Z,100617.91
2023-12-09T11:30:31.710Z,100620.66
2023-12-09T11:31:37.965Z,100616.28
2023-12-09T11:32:45.522Z,100611.22
2023-12-09T11:33:52.887Z,100609.59
2023-12-09T11:35:00.749Z,100607.94
2023-12-09T11:36:09.512Z,100605.44
2023-12-09T11:37:20.529Z,100598.78
2023-12-09T11:38:26.175Z,100605.81
2023-12-09T11:39:33.093Z,100603.31
2023-12-09T11:40:39.524Z,100596.44
2023-12-09T11:41:50.217Z,100599.81
2023-12-09T11:42:55.551Z,100606.31
2023-12-09T11:44:03.394Z,100603.63
2023-12-09T11:45:11.655Z,100603.50
2023-12-09T11:46:23.156Z,100594.84
2023-12-09T11:47:28.760Z,100595.66
2023-12-09T11:48:36.116Z,100600.72
2023-12-09T11:49:41.277Z,100596.69
2023-12-09T11:50:47.844Z,100593.94
2023-12-09T11:51:51.709Z,100594.00
2023-12-09T11:53:00.439Z,100592.16
2023-12-09T11:54:06.939Z,100585.16
2023-12-09T11:55:18.616Z,100586.91
2023-12-09T11:56:25.645Z,100587.75
2023-12-09T11:57:35.889Z,100589.44
2023-12-09T11:58:41.977Z,100583.50
2023-12-09T11:59:50.955Z,100579.13
2023-12-09T12:00:57.904Z,100571.47
2023-12-09T12:02:04.439Z,100568.88
2023-12-09T12:03:11.151Z,100558.44
2023-12-09T12:04:19.982Z,100551.38
2023-12-09T12:05:26.272Z,100546.94
2023-12-09T12:06:34.214Z,100553.72
2023-12-09T12:07:41.353Z,100538.97
2023-12-09T12:08:52.857Z,100536.44
2023-12-09T12:09:56.841Z,100534.75
2023-12-09T12:11:03.078Z,100531.25
2023-12-09T12:12:12.798Z,100539.03
2023-12-09T12:13:17.370Z,100539.03
2023-12-09T12:14:28.218Z,100531.31
2023-12-09T12:15:32.379Z,100537.31
2023-12-09T12:16:41.680Z,100535.63
2023-12-09T12:17:45.884Z,100532.06
2023-12-09T12:18:52.848Z,100531.94
2023-12-09T12:19:59.275Z,100527.81
2023-12-09T12:21:07.060Z,100530.25
2023-12-09T12:22:11.153Z,100529.34
2023-12-09T12:23:29.888Z,100525.91
2023-12-09T12:24:42.315Z,100524.06
2023-12-09T12:25:49.047Z,100532.16
2023-12-09T12:26:56.972Z,100529.56
2023-12-09T12:28:05.991Z,100521.88
2023-12-09T12:29:18.152Z,100520.19
2023-12-09T12:30:25.877Z,100523.59
2023-12-09T12:31:35.236Z,100530.44
2023-12-09T12:32:47.185Z,100532.16
2023-12-09T12:33:53.338Z,100523.38
2023-12-09T12:35:00.098Z,100527.66
2023-12-09T12:36:05.999Z,100521.53
2023-12-09T12:37:12.621Z,100522.28
2023-12-09T12:38:20.038Z,100512.66
2023-12-09T12:39:29.403Z,100513.41
2023-12-09T12:40:35.835Z,100510.78
2023-12-09T12:41:48.897Z,100518.59
2023-12-09T12:42:55.588Z,100513.38
2023-12-09T12:44:02.643Z,100514.31
2023-12-09T12:45:18.717Z,100511.69
2023-12-09T12:46:29.801Z,100514.22
2023-12-09T12:47:34.704Z,100510.78
2023-12-09T12:48:46.499Z,100509.84
2023-12-09T12:49:50.684Z,100500.41
2023-12-09T12:50:59.723Z,100496.94
2023-12-09T12:52:04.633Z,100498.69